Terminal Aerodrome Forecast
Issued by NWS

Home | Current Version | Previous Version | Graphics & Text | Print | Product List | Glossary On
Versions: 1 2 3 4 5 6 7 8 9 10 11 12 13 14 15 16
000
FTUS43 KICT 170539
TAFHUT
TAF
KHUT 170539Z 1706/1806 17013KT P6SM VCSH OVC080
     FM170900 18006KT P6SM VCSH OVC025
     FM171100 22005KT P6SM OVC015
     FM171400 24005KT P6SM OVC007
     FM171800 30005KT P6SM OVC015
     FM172000 32006KT P6SM BKN025
     FM180000 VRB05KT P6SM BKN040=

USA.gov is the U.S. government's official web portal to all federal, state and local government web resources and services.